Date,TemperatureHighF,TemperatureAvgF,TemperatureLowF,DewpointHighF,DewpointAvgF,DewpointLowF,HumidityHigh,HumidityAvg,HumidityLow,PressureMaxIn,PressureMinIn,WindSpeedMaxMPH,WindSpeedAvgMPH,GustSpeedMaxMPH,PrecipitationSumIn
2013-1-1,19.0,7.5,-5.8,15.3,2.5,-10.5,86,80,61,30.15,29.92,16,5,16,0.00
2013-1-2,20.8,15.3,12.2,17.9,12.7,9.6,91,89,85,29.96,29.84,15,4,15,0.00
2013-1-3,20.5,13.2,9.5,17.5,8.0,2.6,88,79,66,30.14,29.95,20,8,20,0.00
2013-1-4,32.4,22.4,14.0,18.2,14.3,9.8,88,72,54,30.01,29.89,24,6,24,0.00
2013-1-5,26.4,16.8,8.2,15.1,11.1,5.3,89,78,59,29.97,29.74,14,4,14,0.00
2013-1-6,23.7,15.4,9.5,14.2,9.3,3.9,90,77,59,30.10,29.89,20,6,20,0.00
2013-1-7,38.1,30.0,19.4,25.1,22.1,14.6,81,72,58,29.91,29.78,31,10,31,0.28
2013-1-8,34.0,27.0,16.3,28.8,22.4,14.0,92,83,75,29.87,29.65,22,6,22,0.00
2013-1-9,35.1,30.7,23.2,26.9,22.2,18.7,85,71,57,30.25,29.80,22,8,22,0.00
2013-1-10,39.7,33.6,24.3,34.0,25.8,19.2,100,74,50,30.19,29.64,17,7,17,0.25
2013-1-11,40.6,36.2,34.0,40.4,36.0,33.6,100,99,95,29.64,29.28,17,6,17,0.01
2013-1-12,39.6,14.7,3.2,38.3,8.2,-3.1,95,75,63,29.96,29.29,26,6,26,0.07
2013-1-13,9.0,4.0,0.5,1.4,-2.0,-4.6,80,76,67,30.11,29.91,13,6,13,0.00
2013-1-14,14.5,8.0,4.6,4.8,2.0,0.0,85,76,62,30.27,30.11,14,5,14,0.00
2013-1-15,31.1,21.3,8.2,18.0,12.7,4.5,84,69,55,30.16,29.74,26,10,26,0.10
2013-1-16,27.5,25.2,23.7,25.3,19.1,15.7,92,78,67,29.73,29.55,26,15,26,0.11
2013-1-17,19.4,12.2,2.5,11.0,2.2,-5.1,77,64,49,30.27,30.10,13,5,13,0.00
2013-1-18,42.4,30.9,16.3,30.8,24.0,10.6,86,76,61,30.17,29.62,23,8,23,0.01
2013-1-19,40.1,24.7,1.6,30.4,17.5,-6.0,90,74,55,30.10,29.56,41,11,41,0.01
2013-1-20,8.8,1.9,-3.6,0.5,-6.8,-12.6,80,66,50,30.27,30.10,24,8,24,0.00
2013-1-21,-3.6,-7.6,-12.5,-10.3,-15.9,-20.5,77,66,57,30.22,30.13,19,8,19,0.00
2013-1-22,6.4,-3.5,-11.7,-1.5,-11.5,-18.0,77,67,58,30.26,30.11,11,4,11,0.00
2013-1-23,16.5,7.2,-5.4,8.6,-2.3,-17.8,85,65,48,30.46,30.01,25,8,25,0.00
2013-1-24,13.1,2.1,-7.4,3.6,-9.1,-18.3,66,58,48,30.53,30.05,21,8,21,0.00
2013-1-25,18.9,12.4,3.2,12.4,3.7,-3.4,82,68,53,30.18,29.83,25,10,25,0.00
2013-1-26,24.4,13.4,0.0,12.7,4.3,-4.9,85,67,52,30.22,30.00,17,7,17,0.00
2013-1-27,32.7,29.7,23.2,31.8,23.8,12.5,100,80,58,30.00,29.68,19,5,19,0.06
2013-1-28,34.2,31.9,30.4,34.2,31.7,30.1,100,99,97,29.79,29.52,15,2,15,0.17
2013-1-29,34.7,31.9,27.5,32.5,29.1,21.6,100,90,77,29.62,29.41,23,5,23,0.03
2013-1-30,27.7,17.2,7.5,21.7,10.4,0.2,80,74,68,29.64,29.51,21,12,21,0.00
2013-1-31,7.5,-0.1,-9.4,1.1,-7.3,-17.2,78,71,63,30.14,29.64,22,11,22,0.00
2013-2-1,6.1,-3.3,-13.0,2.6,-10.5,-19.0,85,70,52,30.18,29.91,14,5,14,0.00
2013-2-2,12.7,6.6,0.7,6.5,0.6,-4.7,85,76,59,30.05,29.84,10,4,10,0.00
2013-2-3,14.2,10.0,3.7,9.8,4.1,-1.5,87,77,60,29.96,29.83,17,6,17,0.00
2013-2-4,17.4,10.8,4.1,9.7,3.1,-0.7,88,72,50,29.94,29.64,13,4,13,0.00
2013-2-5,29.1,22.5,10.6,24.4,17.3,6.8,94,80,61,29.96,29.54,21,8,21,0.00
2013-2-6,25.5,16.1,1.6,20.4,12.1,-1.9,88,84,77,29.99,29.81,17,5,17,0.00
2013-2-7,26.4,24.7,20.7,23.4,21.2,17.7,95,86,77,30.12,29.85,17,8,17,0.00
2013-2-8,28.6,23.6,19.6,20.9,16.6,12.0,85,75,56,30.25,30.09,17,6,17,0.00
2013-2-9,32.2,28.0,24.6,28.1,24.6,20.4,93,87,83,30.10,29.82,23,12,23,0.01
2013-2-10,33.6,30.6,27.7,33.4,29.4,24.8,100,95,88,29.82,29.16,24,8,24,0.04
2013-2-11,30.2,24.1,16.9,29.8,19.6,11.7,100,83,73,29.92,29.22,22,10,22,0.01
2013-2-12,36.9,24.9,15.1,25.7,18.0,10.5,86,75,58,29.93,29.69,17,6,17,0.06
2013-2-13,41.0,29.5,18.7,31.7,23.8,15.2,95,80,59,29.69,29.45,13,4,13,0.04
2013-2-14,32.9,26.6,14.5,32.0,19.5,1.2,100,76,37,30.06,29.46,17,5,17,0.07
2013-2-15,18.1,10.1,3.6,5.0,1.4,-1.7,81,68,47,30.17,30.04,15,7,15,0.00
2013-2-16,19.0,8.4,0.0,7.7,2.1,-3.9,86,75,57,30.13,29.98,10,4,10,0.00
2013-2-17,32.0,20.3,5.7,22.7,13.7,0.7,83,75,65,29.99,29.52,24,10,24,0.25
2013-2-18,33.1,22.9,5.7,30.5,17.3,1.0,90,79,72,29.68,29.41,21,10,21,0.00
2013-2-19,6.4,2.9,-3.1,0.8,-5.6,-10.7,80,67,56,30.23,29.68,25,12,25,0.00
2013-2-20,18.1,5.4,-8.5,5.2,-3.5,-13.3,81,67,47,30.32,30.22,11,4,11,0.00
2013-2-21,21.7,13.9,4.8,11.6,5.2,-1.0,78,68,58,30.30,29.94,21,8,21,0.00
2013-2-22,26.6,22.3,18.9,22.2,18.6,11.8,93,86,71,29.94,29.73,21,6,21,0.01
2013-2-23,28.0,20.7,14.7,20.3,16.7,11.4,90,84,72,29.85,29.73,11,4,11,0.01
2013-2-24,34.9,21.9,8.2,21.5,15.3,5.3,90,76,56,29.98,29.84,8,2,8,0.00
2013-2-25,39.7,28.5,18.3,26.1,22.4,15.2,90,78,56,29.99,29.91,9,2,9,0.00
2013-2-26,36.9,28.8,17.4,26.1,23.0,14.8,92,79,64,29.93,29.75,18,7,18,0.00
2013-2-27,37.8,31.2,27.9,25.2,23.6,21.5,83,74,57,29.91,29.74,22,10,22,0.00
2013-2-28,29.7,27.7,23.7,21.5,19.3,15.2,76,70,66,30.09,29.90,19,9,19,0.00
2013-3-1,29.5,24.1,17.2,17.0,14.3,10.7,75,66,54,30.22,30.09,19,7,19,0.00
2013-3-2,31.5,20.1,10.0,12.5,8.9,4.6,88,63,38,30.22,30.05,11,3,11,0.00
2013-3-3,33.6,24.1,13.1,13.9,10.4,5.8,74,56,39,30.05,29.85,17,7,17,0.00
2013-3-4,26.8,24.1,21.2,21.8,17.6,12.1,93,77,54,29.92,29.82,24,11,24,0.01
2013-3-5,28.0,24.8,21.6,23.4,21.7,16.5,95,88,75,30.17,29.85,14,7,14,0.00
2013-3-6,30.0,22.8,16.3,18.3,16.1,11.9,88,76,59,30.29,30.17,13,5,13,0.01
2013-3-7,32.9,20.3,6.6,19.7,13.5,3.2,89,75,57,30.26,30.16,13,4,13,0.00
2013-3-8,39.2,27.7,15.4,29.5,22.0,13.1,90,79,67,30.19,29.97,17,7,17,0.00
2013-3-9,36.1,34.9,33.1,35.9,33.6,27.5,100,95,77,29.97,29.59,18,8,18,0.46
2013-3-10,34.9,32.9,28.2,34.6,29.3,25.5,100,86,78,29.83,29.65,27,13,27,0.04
2013-3-11,29.3,27.0,21.9,27.0,21.4,16.0,96,79,68,29.74,29.63,17,9,17,0.00
2013-3-12,27.5,23.8,19.4,19.7,15.1,9.7,80,69,51,30.06,29.71,20,8,20,0.00
2013-3-13,32.2,21.6,11.3,17.7,12.5,8.2,88,69,43,30.25,30.07,11,6,11,0.00
2013-3-14,41.5,30.5,22.6,28.0,23.6,17.1,92,76,57,30.13,29.90,13,6,13,0.00
2013-3-15,33.8,31.0,25.2,31.4,28.2,23.7,95,89,80,29.90,29.69,12,2,12,0.04
2013-3-16,26.8,21.1,13.3,24.0,13.6,5.8,95,73,51,30.11,29.77,14,2,14,0.00
2013-3-17,28.2,18.5,7.5,20.6,7.7,-1.0,77,62,50,30.14,29.77,20,10,20,0.00
2013-3-18,29.5,21.0,10.9,29.1,16.0,4.2,100,81,65,29.77,29.49,27,14,27,0.00
2013-3-19,22.8,12.5,5.7,5.7,1.3,-3.4,76,61,43,30.07,29.70,22,12,22,0.00
2013-3-20,21.0,11.9,4.5,4.1,-0.5,-4.3,67,57,45,30.09,29.98,24,10,24,0.00
2013-3-21,28.9,17.7,5.5,12.4,5.3,-1.0,77,59,41,30.00,29.91,9,3,9,0.00
2013-3-22,37.2,25.0,12.0,17.1,11.6,5.5,79,58,37,29.99,29.92,11,3,11,0.00
2013-3-23,39.9,28.9,18.5,19.4,16.3,12.1,81,60,38,30.04,29.95,10,4,10,0.00
2013-3-24,31.8,28.8,26.1,23.6,20.8,18.5,81,72,60,29.99,29.85,21,7,21,0.00
2013-3-25,37.4,30.1,22.5,19.2,17.2,14.8,73,59,42,30.10,29.91,20,8,21,0.00
2013-3-26,38.8,30.2,23.7,22.1,19.9,18.0,80,66,46,30.18,30.10,12,5,12,0.00
2013-3-27,44.6,33.6,22.3,23.7,19.2,14.7,85,58,34,30.23,30.18,11,3,11,0.00
2013-3-28,44.2,33.9,22.1,27.1,22.3,16.7,83,64,42,30.23,30.16,11,4,11,0.00
2013-3-29,48.0,37.3,28.8,35.1,29.0,22.8,83,72,53,30.17,29.96,14,5,14,0.00
2013-3-30,54.3,44.2,38.1,41.9,37.3,32.8,90,77,59,29.96,29.74,17,7,17,0.12
2013-4-3,45.7,41.4,34.9,30.7,25.9,17.1,68,54,41,29.92,29.61,25,13,25,0.18
2013-4-4,49.8,42.8,34.3,33.5,27.2,20.8,78,55,35,29.70,29.55,54,11,54,0.04
2013-4-5,43.9,33.9,27.5,32.5,24.6,16.5,96,71,41,29.77,29.43,23,8,23,0.07
2013-4-6,57.4,42.5,34.7,45.3,35.3,28.8,94,76,59,29.44,29.04,24,11,24,0.10
2013-4-7,49.1,39.9,0.0,39.3,34.1,-8.7,93,76,10,29.49,29.29,14,6,14,0.18
2013-4-8,46.4,42.2,38.8,41.5,39.5,-10.9,100,91,10,29.57,29.22,18,7,18,0.18
2013-4-9,41.4,37.5,30.7,37.3,32.8,26.2,96,84,61,29.68,29.49,36,13,36,0.64
2013-4-10,36.5,32.9,28.4,31.1,26.8,21.4,100,79,60,29.73,29.43,49,7,49,0.07
2013-4-11,36.0,32.5,29.5,32.8,30.0,22.9,100,91,59,29.44,29.21,28,8,28,0.39
2013-4-12,34.2,30.4,26.6,29.9,28.0,25.6,100,91,79,29.38,29.20,13,5,16,0.07
2013-4-13,36.9,31.9,27.9,29.0,25.5,23.2,94,78,60,29.50,29.37,12,4,12,0.03
2013-4-14,36.5,31.9,28.8,36.0,28.6,22.3,100,88,70,29.49,29.01,37,6,37,0.08
2013-4-15,40.8,35.6,31.5,33.7,27.8,21.3,92,73,61,29.53,29.09,26,13,27,0.03
2013-4-16,46.9,37.6,32.0,28.6,26.3,-6.0,81,65,17,29.85,29.51,14,5,14,0.00
2013-4-17,38.8,36.1,33.6,35.1,30.2,-13.7,97,80,10,29.85,29.43,24,9,24,0.46
2013-4-18,34.7,32.0,30.2,33.2,31.4,29.6,100,97,92,29.45,29.04,17,4,17,0.11
2013-4-19,37.4,32.0,29.3,30.4,24.4,17.8,100,75,50,29.53,29.02,26,6,26,0.08
2013-4-20,42.3,32.9,21.2,18.1,15.3,8.5,78,51,27,29.83,29.53,11,4,11,0.00
2013-4-21,52.5,40.6,32.7,48.0,35.8,-8.7,100,84,10,29.84,29.57,100,11,100,0.28
2013-4-22,41.2,35.8,31.3,38.2,32.8,-18.7,100,90,10,29.74,29.63,18,7,18,0.11
2013-4-23,41.0,33.2,27.5,31.0,25.8,17.9,100,78,44,29.69,29.60,58,7,58,0.12
2013-4-24,48.6,36.9,26.4,33.4,27.4,21.6,91,70,43,29.62,29.45,27,9,27,0.04
2013-4-25,52.9,40.3,32.0,31.8,28.8,23.4,90,66,35,29.75,29.53,17,7,17,0.00
2013-4-26,71.1,57.3,42.6,43.6,38.2,30.8,78,51,29,29.68,29.52,24,8,24,0.01
2013-4-27,74.8,61.5,45.0,47.5,40.4,32.8,68,48,25,29.68,29.46,25,6,25,0.00
2013-4-28,80.6,63.9,52.2,54.1,47.1,38.2,78,57,27,29.46,29.20,29,12,29,0.07
2013-4-29,75.2,62.4,50.9,57.3,48.6,36.0,89,63,40,29.37,29.11,16,6,16,0.00
2013-4-30,71.4,63.9,57.9,58.4,45.4,21.9,88,55,20,29.52,28.99,23,8,23,0.01
2013-5-1,57.7,39.6,32.9,41.2,34.5,-15.0,97,84,43,30.02,29.52,20,6,20,0.65
2013-5-2,44.8,37.9,32.4,32.9,28.5,-18.7,97,71,46,30.06,29.94,22,8,22,0.53
2013-5-3,38.3,33.5,30.4,32.4,29.1,24.5,97,85,60,29.94,29.67,21,9,21,0.12
2013-5-4,48.7,39.5,32.4,41.7,36.4,30.5,100,89,74,29.71,29.63,15,7,15,0.07
2013-5-5,64.9,50.1,38.3,47.6,40.9,35.3,91,73,50,29.72,29.62,10,5,10,0.00
2013-5-6,73.8,61.3,45.1,56.8,45.9,41.4,89,60,37,29.66,29.56,8,2,8,0.88
2013-5-7,79.3,67.2,52.9,52.3,46.7,37.9,81,51,23,29.62,29.51,14,3,14,0.00
2013-5-8,78.6,65.3,55.2,56.6,50.2,43.1,90,62,30,29.57,29.48,26,3,26,0.21
2013-5-9,59.4,53.2,44.2,56.0,48.1,14.5,92,83,52,29.63,29.50,59,8,59,0.18
2013-5-10,67.1,52.0,37.9,37.2,26.3,-11.2,71,42,14,29.65,29.43,12,5,12,0.00
2013-5-11,57.0,47.1,41.7,39.5,25.6,-9.5,68,44,25,29.72,29.42,109,13,109,0.17
2013-5-12,57.6,46.1,35.1,24.8,19.1,8.8,63,37,15,29.77,29.63,17,5,17,0.00
2013-5-13,72.1,57.2,40.8,47.2,32.2,19.3,54,39,24,29.66,29.21,28,9,28,0.00
2013-5-14,99.0,77.6,58.3,53.0,42.4,16.7,61,33,10,29.25,29.01,27,8,27,0.01
2013-5-15,70.9,62.2,56.3,46.4,44.6,43.3,63,53,37,29.45,29.23,19,7,19,0.00
2013-5-16,122.4,72.2,61.0,50.5,42.2,31.2,56,36,10,29.47,29.39,57,8,57,0.06
2013-5-17,68.2,57.3,54.1,55.9,50.8,32.9,96,81,27,29.55,29.45,21,11,21,0.32
2013-5-18,81.9,65.7,55.0,66.7,58.8,-0.4,100,81,10,29.57,29.35,60,7,60,0.84
2013-5-19,82.0,68.7,61.7,67.5,63.5,59.9,100,85,57,29.37,29.11,27,7,27,1.19
2013-5-20,72.5,65.8,57.7,62.8,59.4,54.9,97,81,55,29.17,29.06,25,8,25,0.59
2013-5-21,68.5,59.4,51.4,60.5,55.4,50.6,100,87,59,29.25,29.08,17,5,17,0.01
2013-5-22,53.6,49.5,46.4,50.7,48.3,43.9,100,95,70,29.52,29.24,35,5,35,0.30
2013-5-23,63.1,53.6,44.8,43.9,35.0,28.6,83,52,29,29.89,29.53,17,6,17,0.00
2013-5-24,69.8,56.1,39.6,50.0,39.2,27.9,86,55,35,29.94,29.72,18,5,18,0.18
2013-5-25,62.6,55.4,52.0,49.6,47.4,41.8,89,75,59,29.81,29.77,22,9,22,0.04
2013-5-26,57.2,53.9,50.9,49.0,43.9,37.8,80,69,55,29.77,29.59,27,11,27,0.00
2013-5-27,69.8,57.7,52.5,54.9,49.4,42.8,97,77,39,29.94,29.42,21,10,21,3.70
2013-5-28,61.2,55.5,52.2,58.5,54.4,51.8,100,96,90,29.92,29.79,14,4,14,0.19
2013-5-29,75.2,64.0,53.1,71.4,61.9,52.8,100,93,75,29.89,29.72,17,5,17,0.29
2013-5-30,77.0,69.2,63.9,67.2,63.2,60.7,100,82,61,29.76,29.60,27,10,27,0.43
2013-5-31,78.6,68.8,61.9,61.9,57.0,49.0,92,68,36,29.65,29.59,37,10,37,0.58
2013-6-1,72.1,60.4,51.4,60.5,52.8,42.7,93,76,57,30.01,29.63,14,5,14,0.21
2013-6-2,65.7,55.8,48.6,43.8,40.5,36.7,75,58,37,30.15,30.00,16,4,16,0.00
2013-6-3,70.3,61.0,48.2,47.4,42.8,38.8,79,54,34,30.14,30.00,14,3,14,0.00
2013-6-4,63.9,59.2,54.5,53.9,49.9,45.4,91,72,55,30.16,30.07,20,7,20,0.04
2013-6-5,62.1,56.2,53.8,58.2,54.4,49.1,100,94,82,30.13,30.00,12,4,12,0.37
2013-6-6,56.3,53.2,50.0,53.8,51.7,47.1,100,95,86,30.10,30.02,8,3,8,0.00
2013-6-7,66.4,58.3,52.7,53.2,51.8,49.4,100,80,56,30.12,29.99,8,2,8,0.00
2013-6-8,72.9,63.8,54.0,56.4,53.4,50.7,92,70,48,30.00,29.96,14,4,14,0.00
2013-6-9,67.3,60.6,56.3,62.1,57.7,25.1,97,90,79,29.98,29.84,21,9,21,0.73
2013-6-10,77.7,65.8,58.8,63.9,60.8,57.7,100,85,57,29.94,29.87,9,2,9,0.00
2013-6-11,78.6,67.9,55.0,68.8,63.1,54.0,100,85,67,29.98,29.88,10,2,10,0.01
2013-6-12,72.0,67.2,62.6,67.9,64.1,58.4,100,90,66,29.96,29.85,17,4,17,0.72
2013-6-30,74.5,69.9,65.1,54.3,53.4,52.3,67,56,46,29.96,29.19,2,0,2,0.72
2013-7-19,85.3,81.0,73.6,71.4,64.2,56.8,80,58,40,29.74,29.57,14,6,14,0.00
2013-7-20,81.5,73.4,64.6,64.4,60.3,55.6,86,65,48,29.81,29.72,11,3,13,0.00
2013-7-21,133.5,67.7,-36.8,99.9,57.3,-38.3,96,71,57,29.81,29.65,8,4,8,0.44
2013-7-22,88.2,76.2,68.2,72.8,64.8,55.4,91,70,45,29.69,29.52,15,6,15,0.00
2013-7-23,77.7,69.2,60.6,56.2,53.5,50.5,82,59,41,29.87,29.69,13,4,13,0.00
2013-7-24,79.9,68.7,60.1,60.3,55.5,50.9,74,64,46,29.92,29.81,10,2,10,0.00
2013-7-25,82.2,73.3,63.3,67.5,61.3,50.1,84,67,45,29.83,29.74,12,3,12,0.00
2013-7-26,72.1,66.9,63.3,65.0,59.6,6.8,89,78,10,29.80,29.74,12,4,12,0.00